Time;durP1;ratioP1;P1;durP2;ratioP2;P2;SDS_P1;SDS_P2;PMS_P1;PMS_P2;Temp;Humidity;BMP_temperature;BMP_pressure;BME280_temperature;BME280_humidity;BME280_pressure;Samples;Min_cycle;Max_cycle;Signal;HPM_P1;HPM_P2
2022/01/19 16:27:03;;;;;;;21.27;12.70;;;4.50;99.90;;;;;;5157716;27;20368;-83
2022/01/19 16:29:29;;;;;;;23.20;13.20;;;4.30;99.90;;;;;;5136833;27;20191;-80
2022/01/19 16:31:55;;;;;;;26.20;13.93;;;4.20;99.90;;;;;;5141388;27;20188;-79
2022/01/19 16:34:22;;;;;;;27.37;14.80;;;4.20;99.90;;;;;;5139720;27;20177;-79
2022/01/19 16:36:48;;;;;;;26.03;14.30;;;4.20;99.90;;;;;;5116602;28;20222;-80
2022/01/19 16:39:15;;;;;;;25.63;14.80;;;4.30;99.90;;;;;;5119602;28;20204;-81
2022/01/19 16:41:44;;;;;;;26.37;14.87;;;4.20;99.90;;;;;;5110073;28;20429;-80
2022/01/19 16:44:10;;;;;;;29.17;15.50;;;4.20;99.90;;;;;;5097838;28;20677;-80
2022/01/19 16:46:39;;;;;;;23.80;13.17;;;4.20;99.90;;;;;;5100180;28;20264;-80
2022/01/19 16:49:07;;;;;;;30.00;15.43;;;4.20;99.90;;;;;;5102620;28;20239;-81
2022/01/19 16:51:33;;;;;;;31.60;16.53;;;4.20;99.90;;;;;;5102690;28;20710;-81
2022/01/19 16:54:00;;;;;;;30.30;15.27;;;4.20;99.90;;;;;;5101117;28;20784;-81
2022/01/19 16:56:25;;;;;;;30.87;14.83;;;4.30;99.90;;;;;;5097165;28;20195;-80
2022/01/19 16:58:51;;;;;;;31.73;15.50;;;4.20;99.90;;;;;;5091342;28;20175;-78
2022/01/19 17:01:17;;;;;;;29.27;14.27;;;4.20;99.90;;;;;;5091658;28;20180;-79
2022/01/19 17:03:43;;;;;;;29.90;16.03;;;4.20;99.90;;;;;;5092540;28;20199;-78
2022/01/19 17:06:10;;;;;;;33.40;16.03;;;4.20;99.90;;;;;;5111489;28;20191;-78
2022/01/19 17:08:37;;;;;;;39.33;16.63;;;4.30;99.90;;;;;;5092188;28;20190;-78
2022/01/19 17:11:06;;;;;;;35.43;16.43;;;4.20;99.90;;;;;;5092997;28;20309;-78
2022/01/19 17:13:37;;;;;;;32.27;15.97;;;4.30;99.90;;;;;;5091869;28;20178;-75
2022/01/19 17:16:31;;;;;;;29.53;15.77;;;4.20;99.90;;;;;;5090650;28;20203;-77
2022/01/19 17:18:53;;;;;;;29.17;15.53;;;4.70;99.90;;;;;;5108372;28;20171;-77
2022/01/19 17:21:19;;;;;;;29.60;15.50;;;4.90;99.90;;;;;;5088701;28;20188;-77
2022/01/19 17:23:47;;;;;;;30.63;15.30;;;4.80;99.90;;;;;;5090256;28;20186;-77
2022/01/19 17:26:14;;;;;;;31.77;15.67;;;4.60;99.90;;;;;;5080790;28;20212;-77
2022/01/19 17:28:40;;;;;;;28.13;14.57;;;4.40;99.90;;;;;;5079537;28;20172;-77
2022/01/19 17:31:05;;;;;;;31.00;16.73;;;4.40;99.90;;;;;;5088535;28;20269;-77
2022/01/19 17:33:31;;;;;;;36.53;16.70;;;4.40;99.90;;;;;;5091017;28;20217;-78
2022/01/19 17:35:58;;;;;;;31.53;15.33;;;4.40;99.90;;;;;;5092386;28;20195;-77
2022/01/19 17:38:23;;;;;;;33.60;16.47;;;4.40;99.90;;;;;;5077998;28;20219;-77
2022/01/19 17:40:49;;;;;;;30.63;15.90;;;4.40;99.90;;;;;;5078040;28;20183;-78
2022/01/19 17:43:17;;;;;;;35.47;16.37;;;4.40;99.90;;;;;;5077899;28;20180;-78
2022/01/19 17:53:39;;;;;;;32.13;17.87;;;4.40;99.90;;;;;;5095554;28;20168;-76
2022/01/19 17:56:05;;;;;;;33.63;17.10;;;4.40;99.90;;;;;;5073759;28;20863;-79
2022/01/19 17:58:31;;;;;;;35.83;17.37;;;4.40;99.90;;;;;;5078608;28;20334;-79
2022/01/19 18:00:58;;;;;;;32.83;16.93;;;4.40;99.90;;;;;;5076372;28;20241;-79
2022/01/19 18:03:24;;;;;;;32.20;16.23;;;4.40;99.90;;;;;;5076164;28;20183;-76
2022/01/19 18:05:50;;;;;;;37.93;16.77;;;4.40;99.90;;;;;;5075512;28;20231;-79
2022/01/19 18:08:16;;;;;;;31.50;16.67;;;4.40;99.90;;;;;;5095858;28;20186;-79
2022/01/19 18:10:41;;;;;;;33.00;16.80;;;4.40;99.90;;;;;;5080087;28;20168;-78
2022/01/19 18:13:08;;;;;;;33.90;16.13;;;4.50;99.90;;;;;;5077337;28;20180;-78
2022/01/19 18:15:33;;;;;;;34.33;16.67;;;4.40;99.90;;;;;;5076929;28;20575;-78
2022/01/19 18:17:59;;;;;;;34.27;17.20;;;4.50;99.90;;;;;;5076707;28;20182;-78
2022/01/19 18:20:26;;;;;;;33.10;16.80;;;4.50;99.90;;;;;;5075901;28;20175;-79
2022/01/19 18:22:52;;;;;;;34.37;16.93;;;4.50;99.90;;;;;;5079092;28;20185;-79
2022/01/19 18:25:18;;;;;;;29.17;16.10;;;4.50;99.90;;;;;;5077493;28;20234;-79
2022/01/19 18:27:46;;;;;;;31.97;15.43;;;4.50;99.90;;;;;;5070182;28;20201;-78
2022/01/19 18:30:12;;;;;;;33.17;16.90;;;4.60;99.90;;;;;;5079013;28;20179;-79
2022/01/19 18:32:38;;;;;;;33.60;16.43;;;4.60;99.90;;;;;;5078705;28;20175;-79
2022/01/19 18:35:08;;;;;;;32.57;16.67;;;4.60;99.90;;;;;;5079697;28;20200;-78
2022/01/19 18:37:34;;;;;;;31.90;16.90;;;4.60;99.90;;;;;;5079719;28;20182;-79
2022/01/19 18:40:04;;;;;;;32.93;16.50;;;4.60;99.90;;;;;;5080525;28;20184;-78
2022/01/19 18:42:30;;;;;;;33.57;16.70;;;4.60;99.90;;;;;;5079983;28;20179;-78
2022/01/19 18:44:55;;;;;;;30.77;16.93;;;4.60;99.90;;;;;;5079461;28;20192;-78
2022/01/19 18:47:21;;;;;;;33.33;17.30;;;4.60;99.90;;;;;;5080297;28;20227;-78
2022/01/19 18:49:46;;;;;;;31.43;16.53;;;4.60;99.90;;;;;;5080498;28;20165;-79
2022/01/19 18:52:13;;;;;;;36.43;17.80;;;4.60;99.90;;;;;;5081892;28;20185;-79
2022/01/19 18:54:39;;;;;;;39.37;18.27;;;4.70;99.90;;;;;;5081117;28;20172;-79
2022/01/19 18:57:05;;;;;;;34.87;18.03;;;4.70;99.90;;;;;;5080051;28;20268;-79
2022/01/19 18:59:30;;;;;;;35.63;18.33;;;4.70;99.90;;;;;;5080512;28;20181;-80
2022/01/19 19:01:56;;;;;;;36.67;17.93;;;4.80;99.90;;;;;;5080438;28;20181;-78
2022/01/19 19:04:23;;;;;;;36.60;18.90;;;4.70;99.90;;;;;;5100816;28;20200;-79
2022/01/19 19:06:48;;;;;;;33.83;18.10;;;4.70;99.90;;;;;;5081972;28;20210;-78
2022/01/19 19:09:21;;;;;;;37.07;20.07;;;4.80;99.90;;;;;;5081798;28;20310;-78
2022/01/19 19:14:16;;;;;;;38.37;18.70;;;4.80;99.90;;;;;;5101661;28;20164;-79
2022/01/19 19:16:42;;;;;;;38.07;19.00;;;4.80;99.90;;;;;;5082137;28;20196;-79
2022/01/19 19:19:09;;;;;;;38.53;19.47;;;4.80;99.90;;;;;;5082316;28;20178;-79
2022/01/19 19:21:36;;;;;;;38.77;18.97;;;4.80;99.90;;;;;;5082215;28;20551;-78
2022/01/19 19:24:02;;;;;;;34.27;18.67;;;4.90;99.90;;;;;;5082265;28;20547;-79
2022/01/19 19:26:27;;;;;;;36.90;18.97;;;4.90;99.90;;;;;;5081770;28;20201;-78
2022/01/19 19:28:53;;;;;;;40.40;19.53;;;4.90;99.90;;;;;;5081583;28;20576;-78
2022/01/19 19:31:19;;;;;;;35.87;18.57;;;4.90;99.90;;;;;;5081668;28;20170;-79
2022/01/19 19:33:44;;;;;;;34.77;18.17;;;4.90;99.90;;;;;;5081055;28;20309;-79
2022/01/19 19:36:10;;;;;;;34.17;18.00;;;5.00;99.90;;;;;;5080832;28;20661;-79
2022/01/19 19:38:39;;;;;;;32.43;16.93;;;5.00;99.90;;;;;;5078743;28;20207;-77
2022/01/19 19:41:08;;;;;;;36.77;17.53;;;5.10;99.90;;;;;;5076997;28;20391;-79
2022/01/19 19:43:35;;;;;;;33.60;17.20;;;5.00;99.90;;;;;;5076652;28;20202;-76
2022/01/19 19:46:02;;;;;;;36.63;18.30;;;5.00;99.90;;;;;;5076913;28;20269;-78
2022/01/19 19:48:29;;;;;;;33.43;17.27;;;5.00;99.90;;;;;;5076667;28;20181;-78
2022/01/19 19:50:56;;;;;;;35.67;17.10;;;5.00;99.90;;;;;;5077620;28;20228;-77
2022/01/19 19:53:22;;;;;;;33.53;16.77;;;5.10;99.90;;;;;;5077984;28;20760;-80
2022/01/19 19:55:48;;;;;;;32.10;16.97;;;5.10;99.90;;;;;;5078174;28;20237;-79
2022/01/19 19:58:13;;;;;;;31.27;15.40;;;5.10;99.90;;;;;;5077359;28;20541;-79
2022/01/19 20:00:39;;;;;;;33.67;16.53;;;5.10;99.90;;;;;;5077135;28;20678;-78
2022/01/19 20:03:05;;;;;;;37.57;17.33;;;5.10;99.90;;;;;;5077403;28;20183;-78
2022/01/19 20:05:32;;;;;;;31.77;13.30;;;5.10;99.90;;;;;;5077532;28;20618;-78
2022/01/19 20:07:58;;;;;;;35.03;15.53;;;5.20;99.90;;;;;;5078383;28;20259;-79
2022/01/19 20:10:24;;;;;;;31.63;15.13;;;5.20;99.90;;;;;;5078430;28;20201;-79
2022/01/19 20:12:50;;;;;;;32.80;14.43;;;5.20;99.90;;;;;;5080736;28;20184;-79
2022/01/19 20:15:18;;;;;;;32.00;15.53;;;5.20;99.90;;;;;;5079138;28;20200;-80
2022/01/19 20:17:44;;;;;;;30.27;14.07;;;5.20;99.90;;;;;;5078522;28;20182;-79
2022/01/19 20:20:11;;;;;;;30.93;13.70;;;5.20;99.90;;;;;;5077231;28;20307;-79
2022/01/19 20:22:37;;;;;;;28.50;13.47;;;5.30;99.90;;;;;;5079448;28;20168;-80
2022/01/19 20:25:04;;;;;;;27.30;11.97;;;5.30;99.90;;;;;;5078747;28;20211;-77
2022/01/19 20:27:29;;;;;;;39.43;12.00;;;5.30;99.90;;;;;;5077716;28;20182;-77
2022/01/19 20:29:56;;;;;;;29.03;11.37;;;5.30;99.90;;;;;;5076352;28;20181;-78
2022/01/19 20:32:23;;;;;;;26.77;11.37;;;5.30;99.90;;;;;;5075729;28;20221;-79
2022/01/19 20:34:48;;;;;;;23.23;10.60;;;5.30;99.90;;;;;;5076039;28;20330;-79
2022/01/19 20:37:14;;;;;;;24.20;9.80;;;5.40;99.90;;;;;;5075670;28;20640;-77
2022/01/19 20:39:40;;;;;;;26.47;10.50;;;5.40;99.90;;;;;;5075884;28;20644;-80
2022/01/19 20:42:06;;;;;;;25.37;9.57;;;5.40;99.90;;;;;;5091621;22;20236;-86
2022/01/19 20:44:32;;;;;;;31.47;9.73;;;5.40;99.90;;;;;;5067903;28;20177;-85
2022/01/19 20:46:59;;;;;;;26.80;9.10;;;5.40;99.90;;;;;;5067301;28;20201;-85
2022/01/19 20:49:24;;;;;;;26.17;8.50;;;5.40;99.90;;;;;;5067964;28;20169;-85
2022/01/19 20:51:50;;;;;;;26.37;8.70;;;5.40;99.90;;;;;;5070613;28;20218;-85
2022/01/19 20:54:16;;;;;;;24.37;7.73;;;5.40;99.90;;;;;;5069001;28;20210;-85
2022/01/19 20:56:42;;;;;;;27.97;7.60;;;5.40;99.90;;;;;;5054803;28;20175;-85
2022/01/19 20:59:07;;;;;;;18.43;7.23;;;5.40;99.90;;;;;;5049577;28;20185;-85
2022/01/19 21:01:33;;;;;;;20.23;7.27;;;5.50;99.90;;;;;;5049407;28;20269;-85
2022/01/19 21:03:59;;;;;;;29.13;8.73;;;5.40;99.90;;;;;;5050078;28;20246;-86
2022/01/19 21:06:25;;;;;;;25.93;7.77;;;5.40;99.90;;;;;;5063030;28;20236;-85
2022/01/19 21:08:50;;;;;;;23.53;7.40;;;5.40;99.90;;;;;;5067768;28;20200;-84
2022/01/19 21:11:16;;;;;;;22.07;6.30;;;5.40;99.90;;;;;;5065681;28;20254;-84
2022/01/19 21:13:42;;;;;;;24.27;5.90;;;5.40;99.90;;;;;;5072491;28;20232;-85
2022/01/19 21:16:08;;;;;;;22.73;5.50;;;5.50;99.90;;;;;;5062692;28;20236;-85
2022/01/19 21:18:34;;;;;;;20.50;5.97;;;5.40;99.90;;;;;;5052347;28;20204;-84
2022/01/19 21:21:00;;;;;;;23.60;5.33;;;5.50;99.90;;;;;;5051905;28;20202;-85
2022/01/19 21:23:27;;;;;;;20.90;5.47;;;5.50;99.90;;;;;;5048152;28;20179;-85
2022/01/19 21:25:54;;;;;;;14.30;4.53;;;5.50;99.90;;;;;;5049476;28;20665;-84
2022/01/19 21:28:21;;;;;;;22.43;5.00;;;5.50;99.90;;;;;;5067082;28;20598;-85
2022/01/19 21:30:48;;;;;;;19.10;4.57;;;5.50;99.90;;;;;;5067307;28;20257;-85
2022/01/19 21:33:14;;;;;;;23.63;3.80;;;5.40;99.90;;;;;;5068364;28;20188;-85
2022/01/19 21:35:39;;;;;;;23.70;4.20;;;5.40;99.90;;;;;;5066380;28;20180;-87
2022/01/19 21:38:05;;;;;;;25.67;4.60;;;5.30;99.90;;;;;;5051338;28;20191;-86
2022/01/19 21:40:31;;;;;;;15.57;4.03;;;5.30;99.90;;;;;;5050264;28;20197;-84
2022/01/19 21:42:57;;;;;;;20.47;3.73;;;5.20;99.90;;;;;;5047330;28;20253;-86
2022/01/19 21:45:23;;;;;;;17.90;3.43;;;5.20;99.90;;;;;;5050581;28;20191;-85
2022/01/19 21:47:49;;;;;;;18.23;3.73;;;5.10;99.90;;;;;;5060073;28;20237;-85
2022/01/19 21:50:15;;;;;;;16.90;3.07;;;5.10;99.90;;;;;;5066690;28;20172;-85
2022/01/19 21:52:42;;;;;;;21.03;3.40;;;5.10;99.90;;;;;;5066796;28;20177;-86
2022/01/19 21:55:08;;;;;;;25.73;3.00;;;5.00;99.90;;;;;;5067144;28;20174;-86
2022/01/19 21:57:34;;;;;;;18.90;3.17;;;5.00;99.90;;;;;;5056059;28;20179;-87
2022/01/19 22:00:00;;;;;;;18.43;3.17;;;4.90;99.90;;;;;;5047522;28;20316;-86
2022/01/19 22:02:25;;;;;;;18.50;3.50;;;4.80;99.90;;;;;;5043369;28;20680;-85
2022/01/19 22:04:51;;;;;;;18.47;2.90;;;4.80;99.90;;;;;;5041936;28;20178;-85
2022/01/19 22:07:16;;;;;;;20.43;3.10;;;4.70;99.90;;;;;;5051167;28;20192;-86
2022/01/19 22:09:43;;;;;;;22.10;3.13;;;4.70;99.90;;;;;;5065929;28;20177;-85
2022/01/19 22:12:09;;;;;;;23.83;3.67;;;4.60;99.90;;;;;;5062698;28;20677;-85
2022/01/19 22:14:35;;;;;;;22.03;2.97;;;4.60;99.90;;;;;;5063164;28;20178;-85
2022/01/19 22:17:01;;;;;;;26.23;3.70;;;4.50;99.90;;;;;;5056447;28;20185;-85
2022/01/19 22:19:26;;;;;;;17.83;2.83;;;4.60;99.90;;;;;;5045016;28;20637;-86
2022/01/19 22:21:53;;;;;;;20.37;3.30;;;4.50;99.90;;;;;;5044756;28;20202;-84
2022/01/19 22:24:19;;;;;;;21.27;2.60;;;4.50;99.90;;;;;;5042716;28;20188;-86
2022/01/19 22:26:47;;;;;;;20.57;2.93;;;4.50;99.90;;;;;;5045279;28;20265;-85
2022/01/19 22:29:14;;;;;;;17.87;3.23;;;4.50;99.90;;;;;;5062178;28;20177;-85
2022/01/19 22:31:40;;;;;;;22.00;3.17;;;4.40;99.90;;;;;;5064697;28;20239;-84
2022/01/19 22:34:05;;;;;;;19.30;3.07;;;4.40;99.90;;;;;;5063478;28;20584;-85
2022/01/19 22:36:31;;;;;;;16.23;2.57;;;4.40;99.90;;;;;;5066295;28;20210;-85
2022/01/19 22:38:57;;;;;;;16.77;2.67;;;4.30;99.90;;;;;;5051880;28;20182;-84
2022/01/19 22:41:23;;;;;;;14.33;2.73;;;4.20;99.90;;;;;;5053242;28;20209;-85
2022/01/19 22:43:49;;;;;;;16.90;2.60;;;4.20;99.90;;;;;;5050356;28;20183;-85
2022/01/19 22:46:17;;;;;;;18.43;2.43;;;4.20;99.90;;;;;;5050432;28;20198;-85
2022/01/19 22:48:43;;;;;;;14.97;2.50;;;4.20;99.90;;;;;;5066476;28;20174;-85
2022/01/19 22:51:10;;;;;;;20.40;2.83;;;4.10;99.90;;;;;;5068411;28;20665;-85
2022/01/19 22:53:38;;;;;;;22.73;3.10;;;4.10;99.90;;;;;;5068834;28;20517;-86
2022/01/19 22:56:05;;;;;;;14.63;2.97;;;4.10;99.90;;;;;;5052644;28;20178;-85
2022/01/19 22:58:30;;;;;;;15.20;2.70;;;4.00;99.90;;;;;;5047332;28;20180;-85
2022/01/19 23:00:56;;;;;;;13.90;2.20;;;3.90;99.90;;;;;;5045628;28;20223;-85
2022/01/19 23:03:21;;;;;;;14.10;2.20;;;4.00;99.90;;;;;;5046814;28;20193;-84
2022/01/19 23:05:47;;;;;;;17.70;3.63;;;4.00;99.90;;;;;;5058861;28;20896;-84
2022/01/19 23:08:13;;;;;;;16.97;2.60;;;3.90;99.90;;;;;;5067182;28;20222;-85
2022/01/19 23:10:38;;;;;;;14.90;2.30;;;3.90;99.90;;;;;;5065377;28;20226;-85
2022/01/19 23:13:04;;;;;;;20.47;2.47;;;3.90;99.90;;;;;;5065107;28;20177;-84
2022/01/19 23:15:29;;;;;;;19.37;2.53;;;3.90;99.90;;;;;;5055182;28;20696;-85
2022/01/19 23:17:56;;;;;;;17.03;2.53;;;3.80;99.90;;;;;;5047372;28;20185;-85
2022/01/19 23:20:22;;;;;;;19.07;2.90;;;3.80;99.90;;;;;;5044282;28;20174;-84
2022/01/19 23:22:47;;;;;;;20.13;2.57;;;3.80;99.90;;;;;;5045575;28;20253;-85
2022/01/19 23:25:13;;;;;;;22.23;3.43;;;3.70;99.90;;;;;;5053325;28;20202;-85
2022/01/19 23:27:41;;;;;;;19.93;2.70;;;3.70;99.90;;;;;;5053876;28;20190;-86
2022/01/19 23:30:09;;;;;;;12.80;2.50;;;3.70;99.90;;;;;;5045070;28;20184;-86
2022/01/19 23:32:46;;;;;;;17.83;2.67;;;3.70;99.90;;;;;;5046000;28;20200;-85
2022/01/19 23:35:12;;;;;;;17.23;2.93;;;3.60;99.90;;;;;;5045931;28;20515;-84
2022/01/19 23:48:25;;;;;;;20.17;2.60;;;3.70;99.90;;;;;;5048807;28;20184;-84
2022/01/19 23:50:52;;;;;;;15.37;2.33;;;3.70;99.90;;;;;;5046201;28;20198;-86
2022/01/19 23:53:18;;;;;;;18.70;2.43;;;3.70;99.90;;;;;;5046813;28;20163;-85
2022/01/19 23:55:44;;;;;;;14.27;2.70;;;3.70;99.90;;;;;;5045843;28;20713;-85
2022/01/19 23:58:18;;;;;;;21.77;3.27;;;3.70;99.90;;;;;;5062270;28;20181;-85
